Austin Reinauer — WCX8055 — position and weather

sailwx.info

Track history (hours):
 
Tides and Currents Weather Stations Pressure Air Temp Water Temp Dewpoint Dewpoint Depression Visibility Wind Speed Wind Dir Waves Ship Positions

Austin Reinauer

Owner: REINAUER TRANSPORTATION CO, LP, STATEN ISLAND, NY. More information available from US FCC via Universal Licensing System and Coast Guard Vessel Documentation Center.

Last reported at 2017-Apr-27 00:30 UTC. Time now 2017-Apr-27 07:12 UTC.
Position N 39°14' W 074°23'.

Length 33 m; draft 6.7 m.

Type: . MMSI: 366739920.

Date/timePositionNaut miles runAvg speedWind from/ knotsBaromVisibWave heightAir tempDewpointWater temp
2017-Apr-27 00:30N 39°14' W 074°23'2210.1
2017-Apr-26 22:21N 39°31' W 074°07'510.1
2017-Apr-26 21:50N 39°36' W 074°05'410.8
2017-Apr-26 21:30N 39°39' W 074°03'510.7
2017-Apr-26 20:59N 39°44' W 073°60'510.0
2017-Apr-26 20:30N 39°49' W 073°58'33 9.6
2017-Apr-26 17:03N 40°22' W 073°55'1 9.3
2017-Apr-26 16:59N 40°23' W 073°55'5 9.5
2017-Apr-26 16:30N 40°27' W 073°54'4 8.3
2017-Apr-26 16:00N 40°30' W 073°57'510.9
2017-Apr-26 15:30N 40°34' W 074°02'510.9
2017-Apr-26 15:00N 40°40' W 074°01'5 9.5
2017-Apr-26 14:30N 40°44' W 073°58'7 7.0
2017-Apr-26 13:28N 40°48' W 073°50'3 5.8
2017-Apr-26 13:00N 40°49' W 073°47'47 7.6
2017-Apr-26 06:48N 41°12' W 072°52'3 9.6
2017-Apr-26 06:30N 41°11' W 072°49'5 9.7
2017-Apr-26 06:00N 41°11' W 072°42'5 9.5
2017-Apr-26 05:30N 41°10' W 072°36'5 9.1
2017-Apr-26 05:00N 41°09' W 072°30'5 9.1
2017-Apr-26 04:30N 41°11' W 072°24'5 9.5
2017-Apr-26 04:00N 41°12' W 072°18'510.6
2017-Apr-26 03:30N 41°14' W 072°12'91 8.7
2017-Apr-25 17:07N 42°04' W 070°31'1 9.8
2017-Apr-25 16:59N 42°06' W 070°31'5 9.7
2017-Apr-25 16:30N 42°10' W 070°32'5 9.7
2017-Apr-25 16:00N 42°14' W 070°37'510.0
2017-Apr-25 15:30N 42°17' W 070°42'510.1
2017-Apr-25 15:00N 42°21' W 070°47'8 7.7
2017-Apr-25 14:00N 42°20' W 070°57'4 8.6
2017-Apr-25 13:30N 42°22' W 071°03'2 3.3
2017-Apr-25 13:00N 42°23' W 071°03'0 0.0
2017-Apr-25 12:27N 42°23' W 071°03'0 0.0
2017-Apr-25 12:00N 42°23' W 071°03'0 0.0
2017-Apr-25 11:30N 42°23' W 071°03'0 0.0
2017-Apr-25 11:00N 42°23' W 071°03'0 0.0
2017-Apr-25 10:27N 42°23' W 071°03'0 0.0
2017-Apr-25 09:57N 42°23' W 071°03'0 0.0
2017-Apr-25 09:30N 42°23' W 071°03'0 0.0
2017-Apr-25 09:00N 42°23' W 071°03'0 0.0
2017-Apr-25 08:30N 42°23' W 071°03'0 0.0
2017-Apr-25 08:00N 42°23' W 071°03'0 0.0
2017-Apr-25 07:30N 42°23' W 071°03'0 0.0
2017-Apr-25 07:00N 42°23' W 071°03'0 0.0
2017-Apr-25 06:30N 42°23' W 071°03'0 0.0
2017-Apr-25 06:00N 42°23' W 071°03'0 0.0
2017-Apr-25 05:30N 42°23' W 071°03'0 0.0
2017-Apr-25 05:00N 42°23' W 071°03'0 0.0
2017-Apr-25 04:30N 42°23' W 071°03'0 0.0
2017-Apr-25 03:57N 42°23' W 071°03'0 0.0
2017-Apr-25 03:30N 42°23' W 071°03'0 0.0
2017-Apr-25 03:00N 42°23' W 071°03'0 0.0
2017-Apr-25 02:27N 42°23' W 071°03'0 0.0
2017-Apr-25 01:57N 42°23' W 071°03'0 0.0
2017-Apr-25 01:30N 42°23' W 071°03'0 0.0
2017-Apr-25 00:57N 42°23' W 071°03'0 0.0
2017-Apr-25 00:30N 42°23' W 071°03'0 0.0
2017-Apr-25 00:00N 42°23' W 071°03'0 0.0
2017-Apr-24 23:30N 42°23' W 071°03'0 0.0
2017-Apr-24 22:59N 42°23' W 071°03'0 0.0
2017-Apr-24 22:29N 42°23' W 071°03'0 0.0
2017-Apr-24 21:59N 42°23' W 071°03'0 0.0
2017-Apr-24 21:29N 42°23' W 071°03'0 0.0
2017-Apr-24 20:59N 42°23' W 071°03'0 0.0
2017-Apr-24 20:29N 42°23' W 071°03'0 0.0
2017-Apr-24 19:59N 42°23' W 071°03'0 0.0
2017-Apr-24 19:29N 42°23' W 071°03'0 0.0
2017-Apr-24 18:59N 42°23' W 071°03'0 0.1
2017-Apr-24 18:30N 42°23' W 071°03'2 3.5
2017-Apr-24 18:00N 42°22' W 071°03'4 7.5
2017-Apr-24 17:30N 42°20' W 070°58'4 8.0
2017-Apr-24 17:00N 42°23' W 070°54'5 9.1
2017-Apr-24 16:30N 42°22' W 070°48'5 9.8
2017-Apr-24 16:00N 42°18' W 070°43'5 9.9
2017-Apr-24 15:30N 42°15' W 070°38'6 9.9
2017-Apr-24 14:54N 42°10' W 070°32'44 4.1
2017-Apr-24 04:15N 41°47' W 071°22'0 0.0
2017-Apr-24 03:56N 41°47' W 071°22'0 0.0
2017-Apr-24 03:26N 41°47' W 071°22'0 0.0
2017-Apr-24 02:56N 41°47' W 071°22'0 0.0
2017-Apr-24 02:21N 41°47' W 071°22'0 0.0
2017-Apr-24 01:57N 41°47' W 071°22'0 0.0
2017-Apr-24 01:27N 41°47' W 071°22'0 0.0
2017-Apr-24 00:57N 41°47' W 071°22'0 0.0
2017-Apr-24 00:27N 41°47' W 071°22'0 0.0
2017-Apr-23 23:57N 41°47' W 071°22'0 0.0
2017-Apr-23 23:27N 41°47' W 071°22'0 0.0
2017-Apr-23 22:57N 41°47' W 071°22'0 0.0
2017-Apr-23 22:27N 41°47' W 071°22'0 0.0
2017-Apr-23 21:51N 41°47' W 071°22'0 0.0
2017-Apr-23 21:27N 41°47' W 071°22'0 0.0
2017-Apr-23 20:57N 41°47' W 071°22'0 0.0
2017-Apr-23 20:21N 41°47' W 071°22'0 0.0
2017-Apr-23 18:09N 41°47' W 071°22'0 0.0
2017-Apr-23 17:57N 41°47' W 071°22'0 0.0
2017-Apr-23 17:27N 41°47' W 071°22'0 0.0
2017-Apr-23 16:51N 41°47' W 071°22'0 0.0
2017-Apr-23 16:27N 41°47' W 071°22'0 0.0
2017-Apr-23 15:57N 41°47' W 071°22'0 0.0
2017-Apr-23 15:27N 41°47' W 071°22'0 0.0
2017-Apr-23 14:57N 41°47' W 071°22'0 0.0
2017-Apr-23 13:57N 41°47' W 071°22'0 0.0
2017-Apr-23 13:21N 41°47' W 071°22'0 0.0
2017-Apr-23 12:45N 41°47' W 071°22'0 0.0
2017-Apr-23 12:26N 41°47' W 071°22'0 0.0
2017-Apr-23 11:50N 41°47' W 071°22'0 0.0
2017-Apr-23 11:27N 41°47' W 071°22'0 0.0
2017-Apr-23 10:59N 41°47' W 071°22'0 0.8
2017-Apr-23 10:30N 41°47' W 071°22'3 5.5
2017-Apr-23 09:53N 41°43' W 071°21'38 6.0
2017-Apr-23 03:28N 41°15' W 071°55'910.3
2017-Apr-23 02:34N 41°14' W 072°08'110.8
2017-Apr-23 02:30N 41°14' W 072°09'510.3
2017-Apr-23 02:00N 41°13' W 072°15'5 9.9
2017-Apr-23 01:30N 41°11' W 072°21'5 9.3
2017-Apr-23 01:00N 41°10' W 072°27'52 8.7
2017-Apr-22 19:03N 40°57' W 073°34'2 9.2
2017-Apr-22 18:49N 40°56' W 073°36'3 9.2
2017-Apr-22 18:29N 40°55' W 073°40'4 8.9
2017-Apr-22 17:59N 40°52' W 073°45'4 8.8
2017-Apr-22 17:30N 40°48' W 073°47'4 8.3
2017-Apr-22 17:00N 40°48' W 073°53'3 5.8
2017-Apr-22 16:30N 40°47' W 073°56'2 4.2
2017-Apr-22 16:00N 40°45' W 073°58'3 5.4
2017-Apr-22 15:30N 40°43' W 073°59'2 4.1
2017-Apr-22 15:00N 40°41' W 074°01'2 4.5
2017-Apr-22 14:30N 40°40' W 074°03'6 5.7
2017-Apr-22 13:30N 40°39' W 074°10'2 4.8
2017-Apr-22 13:00N 40°37' W 074°12'2 3.3
2017-Apr-22 12:30N 40°35' W 074°13'0 0.0
2017-Apr-22 11:40N 40°35' W 074°13'0 0.0
2017-Apr-22 11:22N 40°35' W 074°13'0 0.0
2017-Apr-22 05:40N 40°35' W 074°13'0 0.1
2017-Apr-22 05:28N 40°35' W 074°13'0 0.0
2017-Apr-22 04:58N 40°35' W 074°13'0 0.0
2017-Apr-22 04:22N 40°35' W 074°13'0 0.0
2017-Apr-22 03:52N 40°35' W 074°13'0 0.0
2017-Apr-22 03:16N 40°35' W 074°13'0 0.0
2017-Apr-22 02:58N 40°35' W 074°13'0 0.0
2017-Apr-22 02:28N 40°35' W 074°13'0 0.0
2017-Apr-22 01:10N 40°35' W 074°13'0 0.0
2017-Apr-22 00:58N 40°35' W 074°13'0 0.0
2017-Apr-22 00:28N 40°35' W 074°13'0 0.0
2017-Apr-21 23:52N 40°35' W 074°13'0 0.0
2017-Apr-21 23:16N 40°35' W 074°13'2 6.3
2017-Apr-21 23:00N 40°37' W 074°12'4 7.7
2017-Apr-21 22:30N 40°39' W 074°08'0 0.4
2017-Apr-21 21:59N 40°38' W 074°08'0 0.0
2017-Apr-21 21:29N 40°38' W 074°08'0 0.0
2017-Apr-21 20:59N 40°38' W 074°08'0 0.0
2017-Apr-21 20:29N 40°38' W 074°08'0 0.0
2017-Apr-21 19:56N 40°38' W 074°08'0 0.0
2017-Apr-21 19:29N 40°38' W 074°08'0 0.6
2017-Apr-21 18:59N 40°39' W 074°08'4 7.7
2017-Apr-21 18:30N 40°37' W 074°12'2 2.6
2017-Apr-21 17:55N 40°35' W 074°13'2 0.5
2017-Apr-21 13:25N 40°33' W 074°14'2 0.8
2017-Apr-21 10:41N 40°35' W 074°13'0 0.0
2017-Apr-21 10:29N 40°35' W 074°13'0 0.0
2017-Apr-21 10:00N 40°35' W 074°13'0 0.0
2017-Apr-21 09:29N 40°35' W 074°13'0 0.0
2017-Apr-21 08:58N 40°35' W 074°13'0 0.0
2017-Apr-21 08:30N 40°35' W 074°13'0 0.0
2017-Apr-21 07:58N 40°35' W 074°13'0 0.0
2017-Apr-21 07:29N 40°35' W 074°13'0 0.0
2017-Apr-21 07:00N 40°35' W 074°13'0 0.0
2017-Apr-21 06:30N 40°35' W 074°13'0 0.1
2017-Apr-21 06:00N 40°35' W 074°13'0 0.1
2017-Apr-21 05:28N 40°35' W 074°13'3 5.4
2017-Apr-21 05:00N 40°38' W 074°12'4 7.8
2017-Apr-21 04:30N 40°39' W 074°07'4 7.2
2017-Apr-21 04:00N 40°40' W 074°03'510.1
2017-Apr-21 03:30N 40°43' W 073°58'510.5
2017-Apr-21 03:00N 40°48' W 073°54'510.3
2017-Apr-21 02:28N 40°48' W 073°47'  
Track history (hours):
 
Tides and Currents Weather Stations Pressure Air Temp Water Temp Dewpoint Dewpoint Depression Visibility Wind Speed Wind Dir Waves Ship Positions

Austin Reinauer

Owner: REINAUER TRANSPORTATION CO, LP, STATEN ISLAND, NY. More information available from US FCC via Universal Licensing System and Coast Guard Vessel Documentation Center.

Last reported at 2017-Apr-27 00:30 UTC. Time now 2017-Apr-27 07:12 UTC.
Position N 39°14' W 074°23'.

Length 33 m; draft 6.7 m.

Type: . MMSI: 366739920.

Date/timePositionNaut miles runAvg speedWind from/ knotsBaromVisibWave heightAir tempDewpointWater temp
2017-Apr-27 00:30N 39°14' W 074°23'2210.1
2017-Apr-26 22:21N 39°31' W 074°07'510.1
2017-Apr-26 21:50N 39°36' W 074°05'410.8
2017-Apr-26 21:30N 39°39' W 074°03'510.7
2017-Apr-26 20:59N 39°44' W 073°60'510.0
2017-Apr-26 20:30N 39°49' W 073°58'33 9.6
2017-Apr-26 17:03N 40°22' W 073°55'1 9.3
2017-Apr-26 16:59N 40°23' W 073°55'5 9.5
2017-Apr-26 16:30N 40°27' W 073°54'4 8.3
2017-Apr-26 16:00N 40°30' W 073°57'510.9
2017-Apr-26 15:30N 40°34' W 074°02'510.9
2017-Apr-26 15:00N 40°40' W 074°01'5 9.5
2017-Apr-26 14:30N 40°44' W 073°58'7 7.0
2017-Apr-26 13:28N 40°48' W 073°50'3 5.8
2017-Apr-26 13:00N 40°49' W 073°47'47 7.6
2017-Apr-26 06:48N 41°12' W 072°52'3 9.6
2017-Apr-26 06:30N 41°11' W 072°49'5 9.7
2017-Apr-26 06:00N 41°11' W 072°42'5 9.5
2017-Apr-26 05:30N 41°10' W 072°36'5 9.1
2017-Apr-26 05:00N 41°09' W 072°30'5 9.1
2017-Apr-26 04:30N 41°11' W 072°24'5 9.5
2017-Apr-26 04:00N 41°12' W 072°18'510.6
2017-Apr-26 03:30N 41°14' W 072°12'91 8.7
2017-Apr-25 17:07N 42°04' W 070°31'1 9.8
2017-Apr-25 16:59N 42°06' W 070°31'5 9.7
2017-Apr-25 16:30N 42°10' W 070°32'5 9.7
2017-Apr-25 16:00N 42°14' W 070°37'510.0
2017-Apr-25 15:30N 42°17' W 070°42'510.1
2017-Apr-25 15:00N 42°21' W 070°47'8 7.7
2017-Apr-25 14:00N 42°20' W 070°57'4 8.6
2017-Apr-25 13:30N 42°22' W 071°03'2 3.3
2017-Apr-25 13:00N 42°23' W 071°03'0 0.0
2017-Apr-25 12:27N 42°23' W 071°03'0 0.0
2017-Apr-25 12:00N 42°23' W 071°03'0 0.0
2017-Apr-25 11:30N 42°23' W 071°03'0 0.0
2017-Apr-25 11:00N 42°23' W 071°03'0 0.0
2017-Apr-25 10:27N 42°23' W 071°03'0 0.0
2017-Apr-25 09:57N 42°23' W 071°03'0 0.0
2017-Apr-25 09:30N 42°23' W 071°03'0 0.0
2017-Apr-25 09:00N 42°23' W 071°03'0 0.0
2017-Apr-25 08:30N 42°23' W 071°03'0 0.0
2017-Apr-25 08:00N 42°23' W 071°03'0 0.0
2017-Apr-25 07:30N 42°23' W 071°03'0 0.0
2017-Apr-25 07:00N 42°23' W 071°03'0 0.0
2017-Apr-25 06:30N 42°23' W 071°03'0 0.0
2017-Apr-25 06:00N 42°23' W 071°03'0 0.0
2017-Apr-25 05:30N 42°23' W 071°03'0 0.0
2017-Apr-25 05:00N 42°23' W 071°03'0 0.0
2017-Apr-25 04:30N 42°23' W 071°03'0 0.0
2017-Apr-25 03:57N 42°23' W 071°03'0 0.0
2017-Apr-25 03:30N 42°23' W 071°03'0 0.0
2017-Apr-25 03:00N 42°23' W 071°03'0 0.0
2017-Apr-25 02:27N 42°23' W 071°03'0 0.0
2017-Apr-25 01:57N 42°23' W 071°03'0 0.0
2017-Apr-25 01:30N 42°23' W 071°03'0 0.0
2017-Apr-25 00:57N 42°23' W 071°03'0 0.0
2017-Apr-25 00:30N 42°23' W 071°03'0 0.0
2017-Apr-25 00:00N 42°23' W 071°03'0 0.0
2017-Apr-24 23:30N 42°23' W 071°03'0 0.0
2017-Apr-24 22:59N 42°23' W 071°03'0 0.0
2017-Apr-24 22:29N 42°23' W 071°03'0 0.0
2017-Apr-24 21:59N 42°23' W 071°03'0 0.0
2017-Apr-24 21:29N 42°23' W 071°03'0 0.0
2017-Apr-24 20:59N 42°23' W 071°03'0 0.0
2017-Apr-24 20:29N 42°23' W 071°03'0 0.0
2017-Apr-24 19:59N 42°23' W 071°03'0 0.0
2017-Apr-24 19:29N 42°23' W 071°03'0 0.0
2017-Apr-24 18:59N 42°23' W 071°03'0 0.1
2017-Apr-24 18:30N 42°23' W 071°03'2 3.5
2017-Apr-24 18:00N 42°22' W 071°03'4 7.5
2017-Apr-24 17:30N 42°20' W 070°58'4 8.0
2017-Apr-24 17:00N 42°23' W 070°54'5 9.1
2017-Apr-24 16:30N 42°22' W 070°48'5 9.8
2017-Apr-24 16:00N 42°18' W 070°43'5 9.9
2017-Apr-24 15:30N 42°15' W 070°38'6 9.9
2017-Apr-24 14:54N 42°10' W 070°32'44 4.1
2017-Apr-24 04:15N 41°47' W 071°22'0 0.0
2017-Apr-24 03:56N 41°47' W 071°22'0 0.0
2017-Apr-24 03:26N 41°47' W 071°22'0 0.0
2017-Apr-24 02:56N 41°47' W 071°22'0 0.0
2017-Apr-24 02:21N 41°47' W 071°22'0 0.0
2017-Apr-24 01:57N 41°47' W 071°22'0 0.0
2017-Apr-24 01:27N 41°47' W 071°22'0 0.0
2017-Apr-24 00:57N 41°47' W 071°22'0 0.0
2017-Apr-24 00:27N 41°47' W 071°22'0 0.0
2017-Apr-23 23:57N 41°47' W 071°22'0 0.0
2017-Apr-23 23:27N 41°47' W 071°22'0 0.0
2017-Apr-23 22:57N 41°47' W 071°22'0 0.0
2017-Apr-23 22:27N 41°47' W 071°22'0 0.0
2017-Apr-23 21:51N 41°47' W 071°22'0 0.0
2017-Apr-23 21:27N 41°47' W 071°22'0 0.0
2017-Apr-23 20:57N 41°47' W 071°22'0 0.0
2017-Apr-23 20:21N 41°47' W 071°22'0 0.0
2017-Apr-23 18:09N 41°47' W 071°22'0 0.0
2017-Apr-23 17:57N 41°47' W 071°22'0 0.0
2017-Apr-23 17:27N 41°47' W 071°22'0 0.0
2017-Apr-23 16:51N 41°47' W 071°22'0 0.0
2017-Apr-23 16:27N 41°47' W 071°22'0 0.0
2017-Apr-23 15:57N 41°47' W 071°22'0 0.0
2017-Apr-23 15:27N 41°47' W 071°22'0 0.0
2017-Apr-23 14:57N 41°47' W 071°22'0 0.0
2017-Apr-23 13:57N 41°47' W 071°22'0 0.0
2017-Apr-23 13:21N 41°47' W 071°22'0 0.0
2017-Apr-23 12:45N 41°47' W 071°22'0 0.0
2017-Apr-23 12:26N 41°47' W 071°22'0 0.0
2017-Apr-23 11:50N 41°47' W 071°22'0 0.0
2017-Apr-23 11:27N 41°47' W 071°22'0 0.0
2017-Apr-23 10:59N 41°47' W 071°22'0 0.8
2017-Apr-23 10:30N 41°47' W 071°22'3 5.5
2017-Apr-23 09:53N 41°43' W 071°21'38 6.0
2017-Apr-23 03:28N 41°15' W 071°55'910.3
2017-Apr-23 02:34N 41°14' W 072°08'110.8
2017-Apr-23 02:30N 41°14' W 072°09'510.3
2017-Apr-23 02:00N 41°13' W 072°15'5 9.9
2017-Apr-23 01:30N 41°11' W 072°21'5 9.3
2017-Apr-23 01:00N 41°10' W 072°27'52 8.7
2017-Apr-22 19:03N 40°57' W 073°34'2 9.2
2017-Apr-22 18:49N 40°56' W 073°36'3 9.2
2017-Apr-22 18:29N 40°55' W 073°40'4 8.9
2017-Apr-22 17:59N 40°52' W 073°45'4 8.8
2017-Apr-22 17:30N 40°48' W 073°47'4 8.3
2017-Apr-22 17:00N 40°48' W 073°53'3 5.8
2017-Apr-22 16:30N 40°47' W 073°56'2 4.2
2017-Apr-22 16:00N 40°45' W 073°58'3 5.4
2017-Apr-22 15:30N 40°43' W 073°59'2 4.1
2017-Apr-22 15:00N 40°41' W 074°01'2 4.5
2017-Apr-22 14:30N 40°40' W 074°03'6 5.7
2017-Apr-22 13:30N 40°39' W 074°10'2 4.8
2017-Apr-22 13:00N 40°37' W 074°12'2 3.3
2017-Apr-22 12:30N 40°35' W 074°13'0 0.0
2017-Apr-22 11:40N 40°35' W 074°13'0 0.0
2017-Apr-22 11:22N 40°35' W 074°13'0 0.0
2017-Apr-22 05:40N 40°35' W 074°13'0 0.1
2017-Apr-22 05:28N 40°35' W 074°13'0 0.0
2017-Apr-22 04:58N 40°35' W 074°13'0 0.0
2017-Apr-22 04:22N 40°35' W 074°13'0 0.0
2017-Apr-22 03:52N 40°35' W 074°13'0 0.0
2017-Apr-22 03:16N 40°35' W 074°13'0 0.0
2017-Apr-22 02:58N 40°35' W 074°13'0 0.0
2017-Apr-22 02:28N 40°35' W 074°13'0 0.0
2017-Apr-22 01:10N 40°35' W 074°13'0 0.0
2017-Apr-22 00:58N 40°35' W 074°13'0 0.0
2017-Apr-22 00:28N 40°35' W 074°13'0 0.0
2017-Apr-21 23:52N 40°35' W 074°13'0 0.0
2017-Apr-21 23:16N 40°35' W 074°13'2 6.3
2017-Apr-21 23:00N 40°37' W 074°12'4 7.7
2017-Apr-21 22:30N 40°39' W 074°08'0 0.4
2017-Apr-21 21:59N 40°38' W 074°08'0 0.0
2017-Apr-21 21:29N 40°38' W 074°08'0 0.0
2017-Apr-21 20:59N 40°38' W 074°08'0 0.0
2017-Apr-21 20:29N 40°38' W 074°08'0 0.0
2017-Apr-21 19:56N 40°38' W 074°08'0 0.0
2017-Apr-21 19:29N 40°38' W 074°08'0 0.6
2017-Apr-21 18:59N 40°39' W 074°08'4 7.7
2017-Apr-21 18:30N 40°37' W 074°12'2 2.6
2017-Apr-21 17:55N 40°35' W 074°13'2 0.5
2017-Apr-21 13:25N 40°33' W 074°14'2 0.8
2017-Apr-21 10:41N 40°35' W 074°13'0 0.0
2017-Apr-21 10:29N 40°35' W 074°13'0 0.0
2017-Apr-21 10:00N 40°35' W 074°13'0 0.0
2017-Apr-21 09:29N 40°35' W 074°13'0 0.0
2017-Apr-21 08:58N 40°35' W 074°13'0 0.0
2017-Apr-21 08:30N 40°35' W 074°13'0 0.0
2017-Apr-21 07:58N 40°35' W 074°13'0 0.0
2017-Apr-21 07:29N 40°35' W 074°13'0 0.0
2017-Apr-21 07:00N 40°35' W 074°13'0 0.0
2017-Apr-21 06:30N 40°35' W 074°13'0 0.1
2017-Apr-21 06:00N 40°35' W 074°13'0 0.1
2017-Apr-21 05:28N 40°35' W 074°13'3 5.4
2017-Apr-21 05:00N 40°38' W 074°12'4 7.8
2017-Apr-21 04:30N 40°39' W 074°07'4 7.2
2017-Apr-21 04:00N 40°40' W 074°03'510.1
2017-Apr-21 03:30N 40°43' W 073°58'510.5
2017-Apr-21 03:00N 40°48' W 073°54'510.3
2017-Apr-21 02:28N 40°48' W 073°47'  

Dump ship's entire track history